sensor_id;sensor_type;location;lat;lon;timestamp;noise_LAeq;noise_LA_min;noise_LA_max;noise_LA01;noise_LA95
45109;Laerm;30447;48.742;8.972;2023-02-13T00:00:21;38.16;34.31;41.61;;
45109;Laerm;30447;48.742;8.972;2023-02-13T00:02:48;38.18;34.31;40.62;;
45109;Laerm;30447;48.742;8.972;2023-02-13T00:05:15;38.26;34.31;40.89;;
45109;Laerm;30447;48.742;8.972;2023-02-13T00:07:41;38.33;35.04;43.77;;
45109;Laerm;30447;48.742;8.972;2023-02-13T00:10:08;37.93;33.44;40.33;;
45109;Laerm;30447;48.742;8.972;2023-02-13T00:12:35;38.08;33.90;42.09;;
45109;Laerm;30447;48.742;8.972;2023-02-13T00:15:02;38.06;33.90;40.53;;
45109;Laerm;30447;48.742;8.972;2023-02-13T00:17:28;38.30;33.44;41.19;;
45109;Laerm;30447;48.742;8.972;2023-02-13T00:19:55;38.28;34.69;40.53;;
45109;Laerm;30447;48.742;8.972;2023-02-13T00:22:21;38.39;34.31;41.14;;
45109;Laerm;30447;48.742;8.972;2023-02-13T00:24:48;38.48;35.04;41.38;;
45109;Laerm;30447;48.742;8.972;2023-02-13T00:27:14;38.26;33.90;42.41;;
45109;Laerm;30447;48.742;8.972;2023-02-13T00:29:41;37.89;32.93;40.33;;
45109;Laerm;30447;48.742;8.972;2023-02-13T00:32:07;38.64;34.31;41.22;;
45109;Laerm;30447;48.742;8.972;2023-02-13T00:34:34;38.38;34.69;41.14;;
45109;Laerm;30447;48.742;8.972;2023-02-13T00:37:00;38.68;34.31;46.50;;
45109;Laerm;30447;48.742;8.972;2023-02-13T00:39:27;38.62;33.44;41.22;;
45109;Laerm;30447;48.742;8.972;2023-02-13T00:41:53;38.17;34.31;41.68;;
45109;Laerm;30447;48.742;8.972;2023-02-13T00:44:19;38.15;34.31;41.53;;
45109;Laerm;30447;48.742;8.972;2023-02-13T00:46:46;38.68;34.69;44.76;;
45109;Laerm;30447;48.742;8.972;2023-02-13T00:49:12;38.45;35.04;41.22;;
45109;Laerm;30447;48.742;8.972;2023-02-13T00:51:39;38.77;34.69;42.09;;
45109;Laerm;30447;48.742;8.972;2023-02-13T00:54:05;38.91;35.04;42.76;;
45109;Laerm;30447;48.742;8.972;2023-02-13T00:56:32;38.12;33.90;40.98;;
45109;Laerm;30447;48.742;8.972;2023-02-13T00:58:58;38.21;33.90;40.80;;
45109;Laerm;30447;48.742;8.972;2023-02-13T01:01:25;38.43;33.90;40.98;;
45109;Laerm;30447;48.742;8.972;2023-02-13T01:03:51;38.58;35.01;41.14;;
45109;Laerm;30447;48.742;8.972;2023-02-13T01:06:18;38.34;35.36;41.53;;
45109;Laerm;30447;48.742;8.972;2023-02-13T01:08:44;38.16;34.69;40.62;;
45109;Laerm;30447;48.742;8.972;2023-02-13T01:11:11;38.52;33.44;41.82;;
45109;Laerm;30447;48.742;8.972;2023-02-13T01:13:38;38.65;35.04;41.06;;
45109;Laerm;30447;48.742;8.972;2023-02-13T01:16:04;38.43;35.04;41.06;;
45109;Laerm;30447;48.742;8.972;2023-02-13T01:18:31;38.58;34.69;40.98;;
45109;Laerm;30447;48.742;8.972;2023-02-13T01:21:00;38.87;34.69;41.22;;
45109;Laerm;30447;48.742;8.972;2023-02-13T01:23:36;38.71;35.36;41.75;;
45109;Laerm;30447;48.742;8.972;2023-02-13T01:26:05;38.37;34.69;40.98;;
45109;Laerm;30447;48.742;8.972;2023-02-13T01:28:32;38.36;33.90;40.80;;
45109;Laerm;30447;48.742;8.972;2023-02-13T01:30:59;38.17;34.31;40.80;;
45109;Laerm;30447;48.742;8.972;2023-02-13T01:33:27;38.28;33.90;41.30;;
45109;Laerm;30447;48.742;8.972;2023-02-13T01:35:54;38.66;34.69;41.38;;
45109;Laerm;30447;48.742;8.972;2023-02-13T01:38:21;39.10;35.36;41.61;;
45109;Laerm;30447;48.742;8.972;2023-02-13T01:40:50;38.71;34.69;41.22;;
45109;Laerm;30447;48.742;8.972;2023-02-13T01:43:18;38.60;32.35;41.06;;
45109;Laerm;30447;48.742;8.972;2023-02-13T01:45:54;38.57;35.04;40.80;;
45109;Laerm;30447;48.742;8.972;2023-02-13T01:48:24;38.94;34.69;43.29;;
45109;Laerm;30447;48.742;8.972;2023-02-13T01:51:00;38.77;35.04;41.22;;
45109;Laerm;30447;48.742;8.972;2023-02-13T01:53:52;38.58;33.90;41.46;;
45109;Laerm;30447;48.742;8.972;2023-02-13T01:56:26;38.58;34.31;41.75;;
45109;Laerm;30447;48.742;8.972;2023-02-13T01:58:59;38.40;33.44;41.14;;
45109;Laerm;30447;48.742;8.972;2023-02-13T02:01:28;38.46;34.69;40.98;;
45109;Laerm;30447;48.742;8.972;2023-02-13T02:04:03;38.75;34.31;42.29;;
45109;Laerm;30447;48.742;8.972;2023-02-13T02:06:39;38.61;34.69;41.68;;
45109;Laerm;30447;48.742;8.972;2023-02-13T02:09:16;38.77;34.69;42.03;;
45109;Laerm;30447;48.742;8.972;2023-02-13T02:12:08;38.86;35.36;41.53;;
45109;Laerm;30447;48.742;8.972;2023-02-13T02:14:39;38.78;34.31;42.41;;
45109;Laerm;30447;48.742;8.972;2023-02-13T02:17:06;38.82;35.04;41.38;;
45109;Laerm;30447;48.742;8.972;2023-02-13T02:25:28;38.54;34.31;40.98;;
45109;Laerm;30447;48.742;8.972;2023-02-13T02:28:15;38.53;34.69;40.89;;
45109;Laerm;30447;48.742;8.972;2023-02-13T02:42:29;38.93;34.31;41.53;;
45109;Laerm;30447;48.742;8.972;2023-02-13T02:45:10;39.09;34.69;41.75;;
45109;Laerm;30447;48.742;8.972;2023-02-13T02:56:23;38.68;35.04;41.22;;
45109;Laerm;30447;48.742;8.972;2023-02-13T03:01:46;38.70;34.69;41.61;;
45109;Laerm;30447;48.742;8.972;2023-02-13T03:04:39;38.96;35.36;41.41;;
45109;Laerm;30447;48.742;8.972;2023-02-13T03:07:24;39.31;35.66;50.40;;
45109;Laerm;30447;48.742;8.972;2023-02-13T03:09:56;39.23;35.66;42.03;;
45109;Laerm;30447;48.742;8.972;2023-02-13T03:12:59;39.11;35.04;41.61;;
45109;Laerm;30447;48.742;8.972;2023-02-13T03:16:02;39.53;35.94;42.41;;
45109;Laerm;30447;48.742;8.972;2023-02-13T03:18:56;39.95;35.94;44.15;;
45109;Laerm;30447;48.742;8.972;2023-02-13T03:21:58;39.48;35.66;42.65;;
45109;Laerm;30447;48.742;8.972;2023-02-13T03:28:19;39.10;35.36;41.26;;
45109;Laerm;30447;48.742;8.972;2023-02-13T03:31:23;39.82;36.69;42.88;;
45109;Laerm;30447;48.742;8.972;2023-02-13T03:34:12;40.16;36.69;42.35;;
45109;Laerm;30447;48.742;8.972;2023-02-13T03:36:47;39.94;36.45;42.16;;
45109;Laerm;30447;48.742;8.972;2023-02-13T03:40:00;39.92;36.45;44.15;;
45109;Laerm;30447;48.742;8.972;2023-02-13T03:42:34;40.09;35.94;42.59;;
45109;Laerm;30447;48.742;8.972;2023-02-13T03:45:08;40.13;36.69;43.09;;
45109;Laerm;30447;48.742;8.972;2023-02-13T03:47:58;40.70;37.88;43.29;;
45109;Laerm;30447;48.742;8.972;2023-02-13T03:50:26;41.23;38.21;46.15;;
45109;Laerm;30447;48.742;8.972;2023-02-13T03:53:04;41.16;38.21;43.97;;
45109;Laerm;30447;48.742;8.972;2023-02-13T03:55:45;40.68;37.32;43.19;;
45109;Laerm;30447;48.742;8.972;2023-02-13T03:58:35;40.99;37.87;49.11;;
45109;Laerm;30447;48.742;8.972;2023-02-13T04:01:25;40.87;37.88;43.54;;
45109;Laerm;30447;48.742;8.972;2023-02-13T04:04:07;41.00;38.18;43.94;;
45109;Laerm;30447;48.742;8.972;2023-02-13T04:06:51;41.60;38.52;44.51;;
45109;Laerm;30447;48.742;8.972;2023-02-13T04:09:19;42.50;39.34;56.50;;
45109;Laerm;30447;48.742;8.972;2023-02-13T04:12:05;41.75;38.52;44.58;;
45109;Laerm;30447;48.742;8.972;2023-02-13T04:17:10;42.21;39.34;45.97;;
45109;Laerm;30447;48.742;8.972;2023-02-13T04:19:39;41.81;38.95;45.42;;
45109;Laerm;30447;48.742;8.972;2023-02-13T04:22:06;43.07;39.58;46.71;;
45109;Laerm;30447;48.742;8.972;2023-02-13T04:24:32;42.26;39.46;45.69;;
45109;Laerm;30447;48.742;8.972;2023-02-13T04:26:59;41.73;39.08;43.90;;
45109;Laerm;30447;48.742;8.972;2023-02-13T04:29:25;41.89;39.08;44.79;;
45109;Laerm;30447;48.742;8.972;2023-02-13T04:31:52;41.66;38.67;44.27;;
45109;Laerm;30447;48.742;8.972;2023-02-13T04:34:19;41.96;39.70;44.43;;
45109;Laerm;30447;48.742;8.972;2023-02-13T04:36:46;41.89;38.95;45.77;;
45109;Laerm;30447;48.742;8.972;2023-02-13T04:39:13;42.11;39.92;45.66;;
45109;Laerm;30447;48.742;8.972;2023-02-13T04:41:39;41.74;38.52;44.76;;
45109;Laerm;30447;48.742;8.972;2023-02-13T04:44:06;42.69;40.13;45.72;;
45109;Laerm;30447;48.742;8.972;2023-02-13T04:46:32;42.19;39.34;48.63;;
45109;Laerm;30447;48.742;8.972;2023-02-13T04:48:59;42.40;39.34;56.22;;
45109;Laerm;30447;48.742;8.972;2023-02-13T04:51:25;42.04;39.46;44.39;;
45109;Laerm;30447;48.742;8.972;2023-02-13T04:53:52;42.42;39.70;50.56;;
45109;Laerm;30447;48.742;8.972;2023-02-13T04:56:18;42.25;39.58;45.39;;
45109;Laerm;30447;48.742;8.972;2023-02-13T04:58:45;42.02;38.95;46.59;;
45109;Laerm;30447;48.742;8.972;2023-02-13T05:01:13;42.51;40.08;46.52;;
45109;Laerm;30447;48.742;8.972;2023-02-13T05:03:40;42.58;39.68;47.70;;
45109;Laerm;30447;48.742;8.972;2023-02-13T05:06:07;42.22;39.92;49.52;;
45109;Laerm;30447;48.742;8.972;2023-02-13T05:08:34;42.69;39.70;54.87;;
45109;Laerm;30447;48.742;8.972;2023-02-13T05:11:00;42.44;39.46;50.36;;
45109;Laerm;30447;48.742;8.972;2023-02-13T05:13:27;43.32;40.13;54.41;;
45109;Laerm;30447;48.742;8.972;2023-02-13T05:15:53;44.24;40.03;56.74;;
45109;Laerm;30447;48.742;8.972;2023-02-13T05:18:20;44.97;40.53;57.95;;
45109;Laerm;30447;48.742;8.972;2023-02-13T05:20:46;44.74;40.43;58.28;;
45109;Laerm;30447;48.742;8.972;2023-02-13T05:23:33;44.91;40.54;58.93;;
45109;Laerm;30447;48.742;8.972;2023-02-13T05:25:59;43.57;41.14;55.68;;
45109;Laerm;30447;48.742;8.972;2023-02-13T05:28:26;44.22;40.80;55.35;;
45109;Laerm;30447;48.742;8.972;2023-02-13T05:31:11;43.89;40.71;55.22;;
45109;Laerm;30447;48.742;8.972;2023-02-13T05:33:37;43.06;41.06;45.69;;
45109;Laerm;30447;48.742;8.972;2023-02-13T05:36:04;43.28;41.22;45.83;;
45109;Laerm;30447;48.742;8.972;2023-02-13T05:38:31;43.34;41.14;45.51;;
45109;Laerm;30447;48.742;8.972;2023-02-13T05:40:58;43.51;41.22;46.38;;
45109;Laerm;30447;48.742;8.972;2023-02-13T05:43:26;43.90;41.38;59.46;;
45109;Laerm;30447;48.742;8.972;2023-02-13T05:46:07;44.15;41.75;55.91;;
45109;Laerm;30447;48.742;8.972;2023-02-13T05:48:35;44.60;41.82;58.21;;
45109;Laerm;30447;48.742;8.972;2023-02-13T05:51:02;44.47;41.82;55.60;;
45109;Laerm;30447;48.742;8.972;2023-02-13T05:53:28;44.87;42.13;58.94;;
45109;Laerm;30447;48.742;8.972;2023-02-13T05:55:55;43.99;41.82;54.01;;
45109;Laerm;30447;48.742;8.972;2023-02-13T05:58:21;44.15;41.89;54.46;;
45109;Laerm;30447;48.742;8.972;2023-02-13T06:00:48;44.29;41.96;56.24;;
45109;Laerm;30447;48.742;8.972;2023-02-13T06:03:14;43.74;41.53;46.10;;
45109;Laerm;30447;48.742;8.972;2023-02-13T06:05:41;44.64;42.59;50.16;;
45109;Laerm;30447;48.742;8.972;2023-02-13T06:08:07;44.06;42.09;46.25;;
45109;Laerm;30447;48.742;8.972;2023-02-13T06:10:34;46.52;42.09;59.49;;
45109;Laerm;30447;48.742;8.972;2023-02-13T06:13:00;44.17;42.29;48.80;;
45109;Laerm;30447;48.742;8.972;2023-02-13T06:15:26;43.68;40.98;50.48;;
45109;Laerm;30447;48.742;8.972;2023-02-13T06:17:53;43.77;41.53;47.24;;
45109;Laerm;30447;48.742;8.972;2023-02-13T06:20:19;44.25;41.38;52.05;;
45109;Laerm;30447;48.742;8.972;2023-02-13T06:22:50;45.26;41.38;52.33;;
45109;Laerm;30447;48.742;8.972;2023-02-13T06:25:18;48.62;41.82;61.89;;
45109;Laerm;30447;48.742;8.972;2023-02-13T06:27:44;43.75;41.14;46.95;;
45109;Laerm;30447;48.742;8.972;2023-02-13T06:30:12;43.69;41.46;47.44;;
45109;Laerm;30447;48.742;8.972;2023-02-13T06:32:38;43.67;41.55;50.98;;
45109;Laerm;30447;48.742;8.972;2023-02-13T06:35:05;44.10;41.22;51.22;;
45109;Laerm;30447;48.742;8.972;2023-02-13T06:37:33;44.16;40.33;56.75;;
45109;Laerm;30447;48.742;8.972;2023-02-13T06:39:59;47.13;41.82;59.23;;
45109;Laerm;30447;48.742;8.972;2023-02-13T06:42:26;44.56;42.35;54.28;;
45109;Laerm;30447;48.742;8.972;2023-02-13T06:44:52;44.92;42.41;50.06;;
45109;Laerm;30447;48.742;8.972;2023-02-13T06:47:19;46.21;42.71;59.39;;
45109;Laerm;30447;48.742;8.972;2023-02-13T06:49:45;45.16;42.47;57.06;;
45109;Laerm;30447;48.742;8.972;2023-02-13T06:52:12;45.45;42.41;53.69;;
45109;Laerm;30447;48.742;8.972;2023-02-13T06:54:38;45.68;41.61;55.38;;
45109;Laerm;30447;48.742;8.972;2023-02-13T06:57:05;46.10;42.22;55.23;;
45109;Laerm;30447;48.742;8.972;2023-02-13T06:59:31;46.41;42.09;56.30;;
45109;Laerm;30447;48.742;8.972;2023-02-13T07:01:57;46.91;42.22;53.39;;
45109;Laerm;30447;48.742;8.972;2023-02-13T07:04:24;46.72;41.30;53.44;;
45109;Laerm;30447;48.742;8.972;2023-02-13T07:06:53;45.15;41.68;54.57;;
45109;Laerm;30447;48.742;8.972;2023-02-13T07:09:20;45.42;41.38;54.32;;
45109;Laerm;30447;48.742;8.972;2023-02-13T07:11:46;44.97;41.38;66.75;;
45109;Laerm;30447;48.742;8.972;2023-02-13T07:14:13;43.98;40.43;53.30;;
45109;Laerm;30447;48.742;8.972;2023-02-13T07:16:39;43.42;40.98;53.58;;
45109;Laerm;30447;48.742;8.972;2023-02-13T07:19:06;43.19;40.80;48.52;;
45109;Laerm;30447;48.742;8.972;2023-02-13T07:21:32;43.34;40.53;49.82;;
45109;Laerm;30447;48.742;8.972;2023-02-13T07:23:59;43.40;40.53;55.65;;
45109;Laerm;30447;48.742;8.972;2023-02-13T07:26:26;43.10;40.62;59.76;;
45109;Laerm;30447;48.742;8.972;2023-02-13T07:28:52;43.16;40.89;51.19;;
45109;Laerm;30447;48.742;8.972;2023-02-13T07:31:19;43.29;40.80;57.15;;
45109;Laerm;30447;48.742;8.972;2023-02-13T07:33:48;43.41;40.89;51.17;;
45109;Laerm;30447;48.742;8.972;2023-02-13T07:36:15;43.83;40.89;54.50;;
45109;Laerm;30447;48.742;8.972;2023-02-13T07:38:41;44.13;41.38;54.09;;
45109;Laerm;30447;48.742;8.972;2023-02-13T07:41:08;44.46;41.22;50.86;;
45109;Laerm;30447;48.742;8.972;2023-02-13T07:43:34;44.08;41.30;49.07;;
45109;Laerm;30447;48.742;8.972;2023-02-13T07:46:02;44.03;41.46;57.91;;
45109;Laerm;30447;48.742;8.972;2023-02-13T07:48:28;43.90;41.46;50.36;;
45109;Laerm;30447;48.742;8.972;2023-02-13T07:51:03;44.37;41.46;50.20;;
45109;Laerm;30447;48.742;8.972;2023-02-13T07:53:30;44.64;41.53;54.59;;
45109;Laerm;30447;48.742;8.972;2023-02-13T07:55:57;43.55;41.22;56.63;;
45109;Laerm;30447;48.742;8.972;2023-02-13T07:58:23;43.33;40.53;58.09;;
45109;Laerm;30447;48.742;8.972;2023-02-13T08:00:50;45.61;40.53;58.19;;
45109;Laerm;30447;48.742;8.972;2023-02-13T08:03:17;43.39;40.23;50.30;;
45109;Laerm;30447;48.742;8.972;2023-02-13T08:05:46;43.25;41.06;46.66;;
45109;Laerm;30447;48.742;8.972;2023-02-13T08:08:15;43.53;40.80;52.99;;
45109;Laerm;30447;48.742;8.972;2023-02-13T08:10:41;49.29;41.19;65.08;;
45109;Laerm;30447;48.742;8.972;2023-02-13T08:13:26;43.90;41.53;48.02;;
45109;Laerm;30447;48.742;8.972;2023-02-13T08:15:53;43.93;41.30;49.78;;
45109;Laerm;30447;48.742;8.972;2023-02-13T08:18:19;43.11;40.43;46.57;;
45109;Laerm;30447;48.742;8.972;2023-02-13T08:20:46;42.65;40.23;51.53;;
45109;Laerm;30447;48.742;8.972;2023-02-13T08:23:12;49.68;40.23;73.47;;
45109;Laerm;30447;48.742;8.972;2023-02-13T08:25:39;42.27;39.46;49.39;;
45109;Laerm;30447;48.742;8.972;2023-02-13T08:28:06;42.68;39.21;54.49;;
45109;Laerm;30447;48.742;8.972;2023-02-13T08:30:32;42.80;39.92;57.44;;
45109;Laerm;30447;48.742;8.972;2023-02-13T08:32:59;42.14;39.21;50.32;;
45109;Laerm;30447;48.742;8.972;2023-02-13T08:35:25;42.45;39.46;46.25;;
45109;Laerm;30447;48.742;8.972;2023-02-13T08:37:54;47.40;39.58;61.05;;
45109;Laerm;30447;48.742;8.972;2023-02-13T08:40:21;42.63;39.46;53.30;;
45109;Laerm;30447;48.742;8.972;2023-02-13T08:42:47;43.38;39.21;57.92;;
45109;Laerm;30447;48.742;8.972;2023-02-13T08:45:14;42.00;38.81;55.81;;
45109;Laerm;30447;48.742;8.972;2023-02-13T08:47:40;45.35;39.58;56.12;;
45109;Laerm;30447;48.742;8.972;2023-02-13T08:50:07;41.94;39.08;53.66;;
45109;Laerm;30447;48.742;8.972;2023-02-13T08:52:34;42.08;38.81;54.55;;
45109;Laerm;30447;48.742;8.972;2023-02-13T08:55:00;42.06;39.34;49.67;;
45109;Laerm;30447;48.742;8.972;2023-02-13T08:57:28;41.48;38.37;48.83;;
45109;Laerm;30447;48.742;8.972;2023-02-13T08:59:56;42.02;38.67;56.84;;
45109;Laerm;30447;48.742;8.972;2023-02-13T09:02:22;41.81;39.21;47.08;;
45109;Laerm;30447;48.742;8.972;2023-02-13T09:04:49;42.04;39.46;50.26;;
45109;Laerm;30447;48.742;8.972;2023-02-13T09:07:15;44.02;39.34;57.80;;
45109;Laerm;30447;48.742;8.972;2023-02-13T09:09:42;41.53;38.21;46.73;;
45109;Laerm;30447;48.742;8.972;2023-02-13T09:12:08;41.55;38.21;52.01;;
45109;Laerm;30447;48.742;8.972;2023-02-13T09:14:34;41.85;38.81;48.26;;
45109;Laerm;30447;48.742;8.972;2023-02-13T09:17:01;43.00;39.46;55.97;;
45109;Laerm;30447;48.742;8.972;2023-02-13T09:19:28;43.35;40.13;54.13;;
45109;Laerm;30447;48.742;8.972;2023-02-13T09:21:54;42.47;39.34;48.96;;
45109;Laerm;30447;48.742;8.972;2023-02-13T09:24:21;43.01;39.70;53.18;;
45109;Laerm;30447;48.742;8.972;2023-02-13T09:26:47;43.19;39.92;50.73;;
45109;Laerm;30447;48.742;8.972;2023-02-13T09:29:14;42.73;39.70;52.88;;
45109;Laerm;30447;48.742;8.972;2023-02-13T09:31:40;43.03;39.70;52.06;;
45109;Laerm;30447;48.742;8.972;2023-02-13T09:34:07;42.99;39.08;51.97;;
45109;Laerm;30447;48.742;8.972;2023-02-13T09:36:34;43.28;39.46;51.53;;
45109;Laerm;30447;48.742;8.972;2023-02-13T09:39:01;43.34;39.34;55.90;;
45109;Laerm;30447;48.742;8.972;2023-02-13T09:41:32;43.91;40.03;55.74;;
45109;Laerm;30447;48.742;8.972;2023-02-13T09:49:37;42.78;39.58;55.31;;
45109;Laerm;30447;48.742;8.972;2023-02-13T09:52:08;41.95;38.95;48.58;;
45109;Laerm;30447;48.742;8.972;2023-02-13T09:54:35;43.15;39.34;53.41;;
45109;Laerm;30447;48.742;8.972;2023-02-13T10:08:08;42.18;38.81;48.96;;
45109;Laerm;30447;48.742;8.972;2023-02-13T10:10:55;43.40;39.34;58.64;;
45109;Laerm;30447;48.742;8.972;2023-02-13T10:13:49;44.09;39.46;54.52;;
45109;Laerm;30447;48.742;8.972;2023-02-13T10:16:29;43.21;37.70;54.30;;
45109;Laerm;30447;48.742;8.972;2023-02-13T10:19:07;41.62;38.52;51.87;;
45109;Laerm;30447;48.742;8.972;2023-02-13T10:22:06;41.31;38.37;50.34;;
45109;Laerm;30447;48.742;8.972;2023-02-13T10:24:46;41.62;38.37;49.34;;
45109;Laerm;30447;48.742;8.972;2023-02-13T10:27:24;41.29;37.88;47.95;;
45109;Laerm;30447;48.742;8.972;2023-02-13T10:29:59;42.36;37.12;57.45;;
45109;Laerm;30447;48.742;8.972;2023-02-13T10:32:42;41.11;37.70;53.78;;
45109;Laerm;30447;48.742;8.972;2023-02-13T10:35:25;40.65;37.32;45.63;;
45109;Laerm;30447;48.742;8.972;2023-02-13T10:37:57;41.28;37.88;47.63;;
45109;Laerm;30447;48.742;8.972;2023-02-13T10:40:31;41.63;38.37;55.19;;
45109;Laerm;30447;48.742;8.972;2023-02-13T10:43:18;41.97;37.88;63.48;;
45109;Laerm;30447;48.742;8.972;2023-02-13T10:45:50;40.72;37.32;47.96;;
45109;Laerm;30447;48.742;8.972;2023-02-13T10:51:57;41.78;37.70;59.32;;
45109;Laerm;30447;48.742;8.972;2023-02-13T11:00:09;40.65;37.12;52.57;;
45109;Laerm;30447;48.742;8.972;2023-02-13T11:02:38;41.07;37.88;55.68;;
45109;Laerm;30447;48.742;8.972;2023-02-13T11:05:16;40.75;36.69;49.59;;
45109;Laerm;30447;48.742;8.972;2023-02-13T11:07:44;41.39;37.52;48.83;;
45109;Laerm;30447;48.742;8.972;2023-02-13T11:10:21;43.80;38.02;54.66;;
45109;Laerm;30447;48.742;8.972;2023-02-13T11:12:49;42.18;36.91;59.40;;
45109;Laerm;30447;48.742;8.972;2023-02-13T11:17:54;41.23;37.52;53.94;;
45109;Laerm;30447;48.742;8.972;2023-02-13T11:22:51;40.34;37.12;47.84;;
45109;Laerm;30447;48.742;8.972;2023-02-13T11:25:25;40.42;36.69;49.78;;
45109;Laerm;30447;48.742;8.972;2023-02-13T11:28:07;40.37;36.45;50.86;;
45109;Laerm;30447;48.742;8.972;2023-02-13T11:30:37;40.26;35.94;56.53;;
45109;Laerm;30447;48.742;8.972;2023-02-13T11:33:22;41.36;36.45;46.69;;
45109;Laerm;30447;48.742;8.972;2023-02-13T11:36:04;41.15;36.45;50.68;;
45109;Laerm;30447;48.742;8.972;2023-02-13T11:38:31;39.88;36.20;51.64;;
45109;Laerm;30447;48.742;8.972;2023-02-13T11:41:09;40.87;35.36;58.65;;
45109;Laerm;30447;48.742;8.972;2023-02-13T11:43:47;40.22;35.36;53.82;;
45109;Laerm;30447;48.742;8.972;2023-02-13T11:46:23;40.33;36.69;58.18;;
45109;Laerm;30447;48.742;8.972;2023-02-13T11:49:03;39.64;36.20;47.00;;
45109;Laerm;30447;48.742;8.972;2023-02-13T11:51:45;39.70;35.94;44.97;;
45109;Laerm;30447;48.742;8.972;2023-02-13T11:57:19;40.29;35.94;45.30;;
45109;Laerm;30447;48.742;8.972;2023-02-13T11:59:49;39.68;35.94;52.43;;
45109;Laerm;30447;48.742;8.972;2023-02-13T12:02:19;39.78;35.36;47.22;;
45109;Laerm;30447;48.742;8.972;2023-02-13T12:04:48;40.17;35.94;60.62;;
45109;Laerm;30447;48.742;8.972;2023-02-13T12:07:35;39.27;35.36;45.77;;
45109;Laerm;30447;48.742;8.972;2023-02-13T12:15:36;40.03;36.91;44.47;;
45109;Laerm;30447;48.742;8.972;2023-02-13T12:18:43;39.74;35.04;47.50;;
45109;Laerm;30447;48.742;8.972;2023-02-13T12:24:18;39.72;34.69;45.39;;
45109;Laerm;30447;48.742;8.972;2023-02-13T12:27:04;39.89;35.36;44.76;;
45109;Laerm;30447;48.742;8.972;2023-02-13T12:35:48;40.10;36.20;47.88;;
45109;Laerm;30447;48.742;8.972;2023-02-13T12:44:35;39.92;36.20;49.23;;
45109;Laerm;30447;48.742;8.972;2023-02-13T12:47:17;40.23;36.69;47.36;;
45109;Laerm;30447;48.742;8.972;2023-02-13T12:50:16;39.77;35.94;45.94;;
45109;Laerm;30447;48.742;8.972;2023-02-13T12:53:02;39.55;35.36;43.94;;
45109;Laerm;30447;48.742;8.972;2023-02-13T12:55:36;40.31;35.36;59.94;;
45109;Laerm;30447;48.742;8.972;2023-02-13T13:12:36;39.69;35.36;44.16;;
45109;Laerm;30447;48.742;8.972;2023-02-13T13:20:27;39.15;35.04;42.03;;
45109;Laerm;30447;48.742;8.972;2023-02-13T13:23:14;38.81;35.36;48.39;;
45109;Laerm;30447;48.742;8.972;2023-02-13T13:26:01;39.09;35.04;47.81;;
45109;Laerm;30447;48.742;8.972;2023-02-13T13:28:37;40.63;34.31;58.24;;
45109;Laerm;30447;48.742;8.972;2023-02-13T13:31:06;41.94;36.10;46.25;;
45109;Laerm;30447;48.742;8.972;2023-02-13T13:33:35;41.88;39.58;47.57;;
45109;Laerm;30447;48.742;8.972;2023-02-13T13:36:18;42.13;40.03;50.99;;
45109;Laerm;30447;48.742;8.972;2023-02-13T13:38:59;42.07;37.88;48.69;;
45109;Laerm;30447;48.742;8.972;2023-02-13T13:44:22;40.23;36.20;45.30;;
45109;Laerm;30447;48.742;8.972;2023-02-13T13:49:48;39.04;35.36;44.73;;
45109;Laerm;30447;48.742;8.972;2023-02-13T13:52:31;39.64;35.94;47.65;;
45109;Laerm;30447;48.742;8.972;2023-02-13T13:55:00;39.90;35.36;51.84;;
45109;Laerm;30447;48.742;8.972;2023-02-13T14:02:45;40.47;36.20;46.15;;
45109;Laerm;30447;48.742;8.972;2023-02-13T14:07:40;39.75;35.66;49.49;;
45109;Laerm;30447;48.742;8.972;2023-02-13T14:13:01;40.27;35.66;52.07;;
45109;Laerm;30447;48.742;8.972;2023-02-13T14:23:33;39.46;34.31;54.34;;
45109;Laerm;30447;48.742;8.972;2023-02-13T14:26:18;45.18;35.04;61.61;;
45109;Laerm;30447;48.742;8.972;2023-02-13T14:31:22;39.11;35.04;42.29;;
45109;Laerm;30447;48.742;8.972;2023-02-13T14:36:40;41.72;36.45;53.11;;
45109;Laerm;30447;48.742;8.972;2023-02-13T14:39:18;40.50;35.94;56.25;;
45109;Laerm;30447;48.742;8.972;2023-02-13T14:44:25;41.46;35.36;64.36;;
45109;Laerm;30447;48.742;8.972;2023-02-13T14:46:53;39.47;35.04;50.73;;
45109;Laerm;30447;48.742;8.972;2023-02-13T14:49:29;39.62;35.04;48.31;;
45109;Laerm;30447;48.742;8.972;2023-02-13T14:52:03;38.73;33.90;44.97;;
45109;Laerm;30447;48.742;8.972;2023-02-13T14:54:45;40.58;35.36;48.71;;
45109;Laerm;30447;48.742;8.972;2023-02-13T14:57:18;39.26;35.04;44.03;;
45109;Laerm;30447;48.742;8.972;2023-02-13T14:59:49;41.91;35.94;47.55;;
45109;Laerm;30447;48.742;8.972;2023-02-13T15:02:23;39.04;34.69;44.12;;
45109;Laerm;30447;48.742;8.972;2023-02-13T15:04:59;40.38;34.31;51.74;;
45109;Laerm;30447;48.742;8.972;2023-02-13T15:07:32;39.64;35.04;57.67;;
45109;Laerm;30447;48.742;8.972;2023-02-13T15:10:33;39.48;35.01;45.04;;
45109;Laerm;30447;48.742;8.972;2023-02-13T15:13:02;38.80;33.90;43.77;;
45109;Laerm;30447;48.742;8.972;2023-02-13T15:15:34;41.25;34.69;53.11;;
45109;Laerm;30447;48.742;8.972;2023-02-13T15:18:08;45.13;35.04;67.89;;
45109;Laerm;30447;48.742;8.972;2023-02-13T15:20:40;42.10;35.04;61.86;;
45109;Laerm;30447;48.742;8.972;2023-02-13T15:23:20;40.00;35.36;56.68;;
45109;Laerm;30447;48.742;8.972;2023-02-13T15:25:47;39.66;35.31;47.14;;
45109;Laerm;30447;48.742;8.972;2023-02-13T15:28:22;39.98;35.36;55.00;;
45109;Laerm;30447;48.742;8.972;2023-02-13T15:31:16;39.70;35.04;47.06;;
45109;Laerm;30447;48.742;8.972;2023-02-13T15:33:48;44.92;34.31;64.85;;
45109;Laerm;30447;48.742;8.972;2023-02-13T15:36:18;40.55;35.04;56.70;;
45109;Laerm;30447;48.742;8.972;2023-02-13T15:38:45;40.51;34.31;59.46;;
45109;Laerm;30447;48.742;8.972;2023-02-13T15:41:18;41.48;35.36;62.88;;
45109;Laerm;30447;48.742;8.972;2023-02-13T15:43:55;45.84;34.69;59.58;;
45109;Laerm;30447;48.742;8.972;2023-02-13T15:46:29;44.38;34.31;60.78;;
45109;Laerm;30447;48.742;8.972;2023-02-13T15:49:16;39.11;34.69;45.80;;
45109;Laerm;30447;48.742;8.972;2023-02-13T15:51:44;39.27;35.66;43.49;;
45109;Laerm;30447;48.742;8.972;2023-02-13T15:54:28;40.00;35.36;53.39;;
45109;Laerm;30447;48.742;8.972;2023-02-13T15:57:02;45.72;35.04;61.14;;
45109;Laerm;30447;48.742;8.972;2023-02-13T15:59:37;40.68;35.94;57.21;;
45109;Laerm;30447;48.742;8.972;2023-02-13T16:02:11;39.56;35.36;52.26;;
45109;Laerm;30447;48.742;8.972;2023-02-13T16:04:40;41.75;33.90;56.36;;
45109;Laerm;30447;48.742;8.972;2023-02-13T16:07:11;40.42;35.59;56.92;;
45109;Laerm;30447;48.742;8.972;2023-02-13T16:09:38;39.14;34.69;43.54;;
45109;Laerm;30447;48.742;8.972;2023-02-13T16:12:25;39.11;34.31;52.17;;
45109;Laerm;30447;48.742;8.972;2023-02-13T16:14:56;39.83;35.66;53.11;;
45109;Laerm;30447;48.742;8.972;2023-02-13T16:17:29;39.85;35.94;48.48;;
45109;Laerm;30447;48.742;8.972;2023-02-13T16:30:35;41.21;35.04;61.42;;
45109;Laerm;30447;48.742;8.972;2023-02-13T16:35:44;39.48;35.36;49.51;;
45109;Laerm;30447;48.742;8.972;2023-02-13T16:38:33;39.07;35.36;45.63;;
45109;Laerm;30447;48.742;8.972;2023-02-13T16:43:45;43.56;36.45;55.56;;
45109;Laerm;30447;48.742;8.972;2023-02-13T16:47:19;39.47;34.31;48.18;;
45109;Laerm;30447;48.742;8.972;2023-02-13T16:49:18;39.96;35.59;51.37;;